Ana Sayfa
METAR-TAF:

METAR-TAF

Havaalanları :

Port Isabel-Cameron County Airport

Port Isabel, Teksas, Amerika Birleşik Devletleri

Enlem: 26-09-33N, Boylam: 097-20-15W, yükseklik: 5 m

Güncel hava durumu gözlemi

Rapor saat 08:53 UTC de 27 dakika önce yapıldı.
Rüzgar kuzey/kuzeydoğudan 12 kt
Sıcaklık 22°C
Nem 83%
Basınç 1007 hPa
Görüş mesafesi: 16.1 km
1300 ft yükseklikte az bulutlu
2000 ft yükseklikte parçalı bulutlu
2600 ft yükseklikte çok bulutlu

METAR: KPIL 250853Z AUTO 02012KT 10SM FEW013 SCT020 OVC026 22/19 A2975 RMK AO2 LTG DSNT N SLP074 6//// T02220194 55002 $

Saat: 04:20 (09:20 UTC)


TAF: eksik

4.000'den fazla havaalanı için hava durumu gözlemleri ve tahminleri (METAR ve TAF raporları).

Kullanılabilir istasyonlar harita üzerinde sarı ve kırmızı noktalarla gösterilir.

İstasyonun adını görmek için fareyi noktanın üzerinde gezdirin.

Sonrasında hava gözlem ve tahminlerini görmek için tıklayın.

Haritayı değiştirmek için: yaklaştırmak için siyah artı işaretli yeşil düğmeye ve uzaklaştırmak için de eksi işaretli düğmeye hızla tıklayın; bitişik haritalar için yeşil okları kullanın.


METAR-TAF: